Time;durP1;ratioP1;P1;durP2;ratioP2;P2;SDS_P1;SDS_P2;PMS_P1;PMS_P2;Temp;Humidity;BMP_temperature;BMP_pressure;BME280_temperature;BME280_humidity;BME280_pressure;Samples;Min_cycle;Max_cycle;Signal;HPM_P1;HPM_P2
2022/05/21 00:00:42;;;;;;;7.55;1.88;;;15.60;99.90;;;;;;5091515;28;20188;-80
2022/05/21 00:03:13;;;;;;;7.47;2.05;;;15.60;99.90;;;;;;5091152;28;20235;-80
2022/05/21 00:05:47;;;;;;;8.27;2.05;;;15.60;99.90;;;;;;5091531;28;20197;-79
2022/05/21 00:08:18;;;;;;;30.95;6.35;;;15.70;99.90;;;;;;5092309;28;20196;-79
2022/05/21 00:10:49;;;;;;;10.82;2.63;;;15.80;99.90;;;;;;5091140;28;20193;-79
2022/05/21 00:13:20;;;;;;;8.80;2.10;;;15.90;99.90;;;;;;5090008;28;20261;-79
2022/05/21 00:15:50;;;;;;;4.47;1.80;;;16.00;99.90;;;;;;5093021;28;20659;-79
2022/05/21 00:18:21;;;;;;;8.95;1.88;;;16.20;99.90;;;;;;5091323;28;20200;-80
2022/05/21 00:20:53;;;;;;;5.22;1.52;;;16.30;99.90;;;;;;5090888;28;20210;-79
2022/05/21 00:23:26;;;;;;;6.55;1.50;;;16.40;99.90;;;;;;5091920;28;20257;-80
2022/05/21 00:26:00;;;;;;;6.32;1.60;;;16.50;99.90;;;;;;5089662;28;20514;-79
2022/05/21 00:28:31;;;;;;;8.07;1.60;;;16.60;99.90;;;;;;5091799;28;20196;-80
2022/05/21 00:31:02;;;;;;;8.63;1.60;;;16.80;99.90;;;;;;5091935;28;20724;-79
2022/05/21 00:33:34;;;;;;;4.53;1.40;;;16.80;99.90;;;;;;5089003;28;20656;-79
2022/05/21 00:36:07;;;;;;;4.80;1.30;;;17.00;99.90;;;;;;5092474;28;20241;-79
2022/05/21 00:38:38;;;;;;;5.20;1.48;;;17.10;99.90;;;;;;5085144;28;20375;-79
2022/05/21 00:41:10;;;;;;;7.50;1.55;;;17.30;99.90;;;;;;5090418;28;20586;-79
2022/05/21 00:43:43;;;;;;;6.80;1.40;;;17.40;99.90;;;;;;5088931;28;20208;-79
2022/05/21 00:46:16;;;;;;;8.65;2.15;;;17.60;99.90;;;;;;5091378;28;20202;-79
2022/05/21 00:48:48;;;;;;;6.43;1.55;;;17.70;99.90;;;;;;5088863;28;20675;-79
2022/05/21 00:51:24;;;;;;;9.15;1.40;;;17.70;99.90;;;;;;5090327;28;20208;-80
2022/05/21 00:53:58;;;;;;;5.05;1.20;;;17.70;99.90;;;;;;5089356;28;20227;-80
2022/05/21 00:56:30;;;;;;;7.60;1.30;;;17.50;99.90;;;;;;5087474;28;20192;-80
2022/05/21 01:01:52;;;;;;;5.10;1.10;;;17.60;99.90;;;;;;5090515;28;20207;-80
2022/05/21 01:04:23;;;;;;;5.35;1.27;;;17.50;99.90;;;;;;5089503;28;20215;-79
2022/05/21 01:06:59;;;;;;;8.15;2.15;;;17.50;99.90;;;;;;5091068;28;20192;-79
2022/05/21 01:09:29;;;;;;;9.68;4.40;;;17.50;99.90;;;;;;5090603;28;20249;-79
2022/05/21 01:12:01;;;;;;;5.97;2.75;;;17.40;99.90;;;;;;5090601;28;20253;-79
2022/05/21 01:14:33;;;;;;;5.90;1.20;;;17.40;99.90;;;;;;5089357;28;20321;-79
2022/05/21 01:17:04;;;;;;;4.57;1.15;;;17.30;99.90;;;;;;5091614;28;20200;-79
2022/05/21 01:19:35;;;;;;;5.95;1.45;;;17.30;99.90;;;;;;5089473;28;20265;-79
2022/05/21 01:22:07;;;;;;;6.63;1.20;;;17.30;99.90;;;;;;5090345;28;20702;-80
2022/05/21 01:24:40;;;;;;;5.03;1.20;;;17.20;99.90;;;;;;5091140;28;20258;-79
2022/05/21 01:27:10;;;;;;;3.05;1.15;;;17.20;99.90;;;;;;5088022;28;20690;-79
2022/05/21 01:29:41;;;;;;;4.68;1.13;;;17.10;99.90;;;;;;5081000;28;20201;-79
2022/05/21 01:32:19;;;;;;;3.67;0.93;;;17.10;99.90;;;;;;5090097;28;20193;-79
2022/05/21 01:34:50;;;;;;;6.10;1.17;;;17.10;99.90;;;;;;5091882;28;20248;-79
2022/05/21 01:37:20;;;;;;;4.57;1.25;;;17.10;99.90;;;;;;5088392;28;20305;-80
2022/05/21 01:39:53;;;;;;;2.33;0.82;;;17.00;99.90;;;;;;5090478;28;20241;-80
2022/05/21 01:42:23;;;;;;;3.70;0.80;;;16.90;99.90;;;;;;5088443;28;20212;-80
2022/05/21 01:44:52;;;;;;;3.50;0.82;;;17.00;99.90;;;;;;5089647;28;20196;-80
2022/05/21 01:47:24;;;;;;;3.22;0.65;;;17.00;99.90;;;;;;5089487;28;20207;-79
2022/05/21 01:49:54;;;;;;;3.22;0.60;;;17.00;99.90;;;;;;5091155;28;20204;-79
2022/05/21 01:52:25;;;;;;;4.10;0.70;;;17.00;99.90;;;;;;5089668;28;20200;-80
2022/05/21 01:54:59;;;;;;;4.72;0.60;;;17.10;99.90;;;;;;5093946;28;20238;-80
2022/05/21 01:57:29;;;;;;;5.22;0.80;;;17.20;99.90;;;;;;5093840;28;20192;-79
2022/05/21 02:00:00;;;;;;;2.53;0.60;;;17.20;99.90;;;;;;5093573;28;20724;-80
2022/05/21 02:02:31;;;;;;;3.38;0.70;;;17.30;99.90;;;;;;5090201;28;20204;-79
2022/05/21 02:05:01;;;;;;;4.18;0.90;;;17.30;99.90;;;;;;5096260;28;20197;-80
2022/05/21 02:07:32;;;;;;;7.18;0.90;;;17.40;99.90;;;;;;5095918;28;20253;-79
2022/05/21 02:10:04;;;;;;;5.03;0.60;;;17.40;99.90;;;;;;5088255;28;20211;-78
2022/05/21 02:12:35;;;;;;;4.50;0.60;;;17.50;99.90;;;;;;5096255;28;20249;-79
2022/05/21 02:15:06;;;;;;;5.75;0.63;;;17.60;99.90;;;;;;5096260;28;20704;-79
2022/05/21 02:17:37;;;;;;;2.47;0.40;;;17.60;99.90;;;;;;5095616;28;20197;-79
2022/05/21 02:20:08;;;;;;;4.25;0.88;;;17.70;99.90;;;;;;5094750;28;20223;-78
2022/05/21 02:22:39;;;;;;;8.60;0.85;;;17.70;99.90;;;;;;5095083;28;20218;-83
2022/05/21 02:25:14;;;;;;;3.55;0.73;;;17.70;99.90;;;;;;5095224;28;20191;-76
2022/05/21 02:47:23;;;;;;;7.30;1.48;;;17.70;99.90;;;;;;5082334;28;20200;-77
2022/05/21 02:50:35;;;;;;;6.22;0.98;;;17.60;99.90;;;;;;5087878;28;20597;-78
2022/05/21 02:57:04;;;;;;;7.20;0.90;;;17.50;99.90;;;;;;5030115;28;20218;-77
2022/05/21 03:30:01;;;;;;;5.03;0.95;;;17.20;99.90;;;;;;5049903;28;20279;-78
2022/05/21 03:56:44;;;;;;;4.07;0.70;;;17.60;99.90;;;;;;4951567;28;20216;-77
2022/05/21 03:59:50;;;;;;;4.15;0.85;;;17.60;99.90;;;;;;4962378;28;20192;-76
2022/05/21 04:12:44;;;;;;;1.63;0.52;;;17.30;99.90;;;;;;5023600;28;20209;-76
2022/05/21 04:15:19;;;;;;;2.90;0.55;;;17.30;99.90;;;;;;5026007;28;20210;-77
2022/05/21 04:18:23;;;;;;;1.83;0.60;;;17.20;99.90;;;;;;5023474;28;20245;-77
2022/05/21 04:24:44;;;;;;;2.30;0.50;;;17.00;99.90;;;;;;5018655;28;20328;-77
2022/05/21 04:44:09;;;;;;;1.38;0.50;;;16.70;99.90;;;;;;5033977;28;20216;-77
2022/05/21 04:50:29;;;;;;;1.60;0.40;;;16.80;99.90;;;;;;4963155;28;20211;-76
2022/05/21 05:17:58;;;;;;;2.85;0.90;;;16.90;99.90;;;;;;4906207;29;20244;-76
2022/05/21 05:31:54;;;;;;;3.78;0.90;;;16.90;99.90;;;;;;4916304;29;20301;-77
2022/05/21 05:38:38;;;;;;;6.65;1.10;;;16.80;99.90;;;;;;4890439;29;20210;-77
2022/05/21 06:08:46;;;;;;;5.05;0.90;;;16.60;99.90;;;;;;4870285;29;20216;-76
2022/05/21 06:11:19;;;;;;;3.10;1.05;;;16.60;99.90;;;;;;4880349;29;20675;-75
2022/05/21 06:13:50;;;;;;;7.85;1.10;;;16.50;99.90;;;;;;4879828;29;20294;-76
2022/05/21 06:16:20;;;;;;;1.92;0.70;;;16.50;99.90;;;;;;4935644;28;20197;-76
2022/05/21 06:18:51;;;;;;;5.90;1.00;;;16.50;99.90;;;;;;4951934;28;20551;-75
2022/05/21 06:21:22;;;;;;;4.60;0.85;;;16.50;99.90;;;;;;4960345;28;20283;-76
2022/05/21 06:23:53;;;;;;;5.72;0.98;;;16.50;99.90;;;;;;4967607;28;20223;-76
2022/05/21 06:26:26;;;;;;;3.63;0.90;;;16.50;99.90;;;;;;4963930;28;20196;-76
2022/05/21 06:28:56;;;;;;;3.95;1.02;;;16.40;99.90;;;;;;4970845;28;20192;-76
2022/05/21 06:31:27;;;;;;;2.55;1.02;;;16.40;99.90;;;;;;4959389;28;20249;-76
2022/05/21 06:33:58;;;;;;;3.60;1.00;;;16.30;99.90;;;;;;4954329;28;20696;-76
2022/05/21 06:36:28;;;;;;;2.22;0.70;;;16.30;99.90;;;;;;4952393;28;20197;-76
2022/05/21 06:38:59;;;;;;;4.45;0.88;;;16.30;99.90;;;;;;4955160;28;20284;-76
2022/05/21 06:41:31;;;;;;;2.20;0.80;;;16.30;99.90;;;;;;4953869;28;20268;-76
2022/05/21 06:44:02;;;;;;;3.63;0.80;;;16.20;99.90;;;;;;4954820;28;20378;-76
2022/05/21 06:46:33;;;;;;;4.15;0.90;;;16.10;99.90;;;;;;4957341;28;20200;-76
2022/05/21 06:49:04;;;;;;;2.80;0.70;;;16.00;99.90;;;;;;4954884;28;20189;-76
2022/05/21 06:51:34;;;;;;;1.42;0.60;;;16.00;99.90;;;;;;4999223;28;20646;-75
2022/05/21 06:54:05;;;;;;;1.52;0.60;;;16.00;99.90;;;;;;4997893;28;20224;-76
2022/05/21 06:56:40;;;;;;;2.70;0.80;;;16.00;99.90;;;;;;5002236;28;20274;-76
2022/05/21 06:59:11;;;;;;;4.82;1.15;;;16.00;99.90;;;;;;4996484;28;20206;-77
2022/05/21 07:01:42;;;;;;;3.70;0.88;;;16.00;99.90;;;;;;4988756;28;20195;-76
2022/05/21 07:04:13;;;;;;;3.42;1.02;;;15.90;99.90;;;;;;4999947;28;20219;-75
2022/05/21 07:09:31;;;;;;;5.85;2.30;;;15.90;99.90;;;;;;4992953;28;20218;-76
2022/05/21 07:12:04;;;;;;;5.25;1.40;;;15.90;99.90;;;;;;4983959;28;20193;-76
2022/05/21 07:14:34;;;;;;;4.30;1.48;;;15.80;99.90;;;;;;4993615;28;20295;-76
2022/05/21 07:17:05;;;;;;;2.75;1.42;;;15.80;99.90;;;;;;4995115;28;20242;-75
2022/05/21 07:19:38;;;;;;;3.38;1.20;;;15.90;99.90;;;;;;4993346;28;20188;-76
2022/05/21 07:22:09;;;;;;;4.68;1.33;;;15.80;99.90;;;;;;4993243;28;20183;-76
2022/05/21 07:24:42;;;;;;;5.15;1.27;;;15.80;99.90;;;;;;4996444;28;20301;-76
2022/05/21 07:27:16;;;;;;;4.60;1.20;;;15.80;99.90;;;;;;4994490;28;20196;-76
2022/05/21 07:29:47;;;;;;;3.00;1.00;;;15.80;99.90;;;;;;4992374;28;20538;-76
2022/05/21 07:32:23;;;;;;;2.63;0.98;;;15.70;99.90;;;;;;4993821;28;20195;-76
2022/05/21 07:35:00;;;;;;;5.60;1.13;;;15.70;99.90;;;;;;4996035;28;20190;-76
2022/05/21 07:37:31;;;;;;;3.60;1.38;;;15.70;99.90;;;;;;4994004;28;20199;-77
2022/05/21 07:40:02;;;;;;;2.78;1.00;;;15.70;99.90;;;;;;4997218;28;20285;-76
2022/05/21 07:42:35;;;;;;;3.03;0.95;;;15.70;99.90;;;;;;5032201;28;20922;-76
2022/05/21 07:45:06;;;;;;;1.98;1.08;;;15.60;99.90;;;;;;5074457;28;20216;-76
2022/05/21 07:47:36;;;;;;;4.32;1.13;;;15.60;99.90;;;;;;5077784;28;20551;-77
2022/05/21 07:50:08;;;;;;;6.18;1.27;;;15.60;99.90;;;;;;5072332;28;20193;-77
2022/05/21 07:52:39;;;;;;;4.38;1.10;;;15.60;99.90;;;;;;5075718;28;20250;-76
2022/05/21 07:55:11;;;;;;;3.47;1.30;;;15.60;99.90;;;;;;5070864;28;20267;-76
2022/05/21 07:57:44;;;;;;;4.60;1.40;;;15.60;99.90;;;;;;5074436;28;20192;-76
2022/05/21 08:00:17;;;;;;;5.05;1.60;;;15.60;99.90;;;;;;5076571;28;20204;-76
2022/05/21 08:02:49;;;;;;;3.97;1.65;;;15.60;99.90;;;;;;5071462;28;20189;-77
2022/05/21 08:05:20;;;;;;;8.35;2.28;;;15.60;99.90;;;;;;5075199;28;20575;-77
2022/05/21 08:07:52;;;;;;;7.25;2.67;;;15.60;99.90;;;;;;5077482;28;20189;-79
2022/05/21 08:10:24;;;;;;;5.55;2.47;;;15.70;99.90;;;;;;5078403;28;20181;-76
2022/05/21 08:12:56;;;;;;;6.15;3.15;;;15.70;99.90;;;;;;5078785;28;20268;-76
2022/05/21 08:15:27;;;;;;;6.00;2.80;;;15.60;99.90;;;;;;5075980;28;20193;-78
2022/05/21 08:17:59;;;;;;;6.72;3.00;;;15.60;99.90;;;;;;5076266;28;20250;-78
2022/05/21 08:20:30;;;;;;;5.50;2.58;;;15.60;99.90;;;;;;5077830;28;20181;-76
2022/05/21 08:28:36;;;;;;;4.60;2.58;;;15.60;99.90;;;;;;5073395;28;20215;-76
2022/05/21 08:31:07;;;;;;;6.72;2.60;;;15.60;99.90;;;;;;5074702;28;20185;-75
2022/05/21 08:33:37;;;;;;;7.43;2.30;;;15.50;99.90;;;;;;5074963;28;20601;-76
2022/05/21 08:36:08;;;;;;;5.63;2.42;;;15.40;99.90;;;;;;5072434;28;20645;-77
2022/05/21 08:38:41;;;;;;;6.45;2.13;;;15.50;99.90;;;;;;5075842;28;20246;-76
2022/05/21 08:41:15;;;;;;;5.65;2.15;;;15.60;99.90;;;;;;5073597;28;20316;-76
2022/05/21 08:44:02;;;;;;;4.68;2.20;;;15.50;99.90;;;;;;5071771;28;20225;-82
2022/05/21 08:46:45;;;;;;;7.22;2.55;;;15.50;99.90;;;;;;5070758;28;20269;-77
2022/05/21 08:49:26;;;;;;;5.03;2.17;;;15.50;99.90;;;;;;5074621;28;20185;-76
2022/05/21 08:52:03;;;;;;;6.68;2.30;;;15.50;99.90;;;;;;5077363;28;20246;-76
2022/05/21 08:54:41;;;;;;;4.95;2.50;;;15.40;99.90;;;;;;5072656;28;20224;-76
2022/05/21 08:57:17;;;;;;;5.85;2.33;;;15.50;99.90;;;;;;5077515;28;20196;-78
2022/05/21 08:59:53;;;;;;;5.70;2.25;;;15.40;99.90;;;;;;5077776;28;20188;-79
2022/05/21 09:02:30;;;;;;;7.78;2.65;;;15.40;99.90;;;;;;5070440;28;20185;-79
2022/05/21 09:05:02;;;;;;;8.32;2.78;;;15.40;99.90;;;;;;5071839;28;20206;-78
2022/05/21 09:07:41;;;;;;;8.65;3.47;;;15.40;99.90;;;;;;5073082;28;20200;-77
2022/05/21 09:10:24;;;;;;;7.63;2.83;;;15.40;99.90;;;;;;5082758;28;20248;-78
2022/05/21 09:13:01;;;;;;;9.82;3.20;;;15.40;99.90;;;;;;5083739;28;20237;-78
2022/05/21 09:35:05;;;;;;;6.32;2.92;;;15.30;99.90;;;;;;5028224;28;20192;-76
2022/05/21 09:37:35;;;;;;;5.95;2.85;;;15.30;99.90;;;;;;5032291;28;20277;-77
2022/05/21 09:40:25;;;;;;;8.70;3.28;;;15.30;99.90;;;;;;5032285;28;20284;-77
2022/05/21 09:45:44;;;;;;;7.82;3.70;;;15.20;99.90;;;;;;5030648;28;20352;-76
2022/05/21 09:48:21;;;;;;;11.00;3.85;;;15.20;99.90;;;;;;5030204;28;20193;-78
2022/05/21 09:50:57;;;;;;;8.02;3.88;;;15.20;99.90;;;;;;5029102;28;20205;-76
2022/05/21 09:53:31;;;;;;;8.82;4.15;;;15.20;99.90;;;;;;5032233;28;20222;-77
2022/05/21 09:56:04;;;;;;;7.15;4.30;;;15.20;99.90;;;;;;5029473;28;20260;-76
2022/05/21 09:58:37;;;;;;;9.27;4.30;;;15.20;99.90;;;;;;5031315;28;20248;-76
2022/05/21 10:01:09;;;;;;;8.70;4.18;;;15.20;99.90;;;;;;5030557;28;20213;-77
2022/05/21 10:03:46;;;;;;;9.60;3.95;;;15.20;99.90;;;;;;5023952;28;20790;-77
2022/05/21 10:06:31;;;;;;;8.18;3.70;;;15.20;99.90;;;;;;5027944;28;20217;-78
2022/05/21 10:12:03;;;;;;;6.38;3.47;;;15.20;99.90;;;;;;5049185;28;20327;-81
2022/05/21 10:14:39;;;;;;;8.73;3.67;;;15.20;99.90;;;;;;5077477;28;20200;-78
2022/05/21 10:17:15;;;;;;;8.50;3.22;;;15.20;99.90;;;;;;5075606;28;20192;-77
2022/05/21 10:19:55;;;;;;;7.43;2.75;;;15.20;99.90;;;;;;5073207;28;20195;-77
2022/05/21 10:22:41;;;;;;;7.53;3.45;;;15.20;99.90;;;;;;5080917;28;20181;-81
2022/05/21 10:25:13;;;;;;;5.55;2.90;;;15.10;99.90;;;;;;5078237;28;20213;-80
2022/05/21 10:28:24;;;;;;;4.50;2.25;;;15.20;99.90;;;;;;5077058;28;20204;-83
2022/05/21 10:31:15;;;;;;;5.05;1.80;;;15.10;99.90;;;;;;5077829;28;20279;-83
2022/05/21 10:34:00;;;;;;;4.15;1.80;;;15.00;99.90;;;;;;5077640;28;20644;-83
2022/05/21 10:55:18;;;;;;;5.65;2.42;;;15.00;99.90;;;;;;5067273;28;20220;-75
2022/05/21 11:01:30;;;;;;;5.53;3.40;;;15.10;99.90;;;;;;5088300;28;20623;-75
2022/05/21 11:04:20;;;;;;;8.13;3.60;;;15.00;99.90;;;;;;5093720;28;20228;-75
2022/05/21 11:07:36;;;;;;;7.93;3.50;;;15.00;99.90;;;;;;5094560;28;20223;-77
2022/05/21 11:10:16;;;;;;;7.63;3.50;;;15.00;99.90;;;;;;5092236;28;20210;-81
2022/05/21 11:12:57;;;;;;;6.90;3.60;;;15.00;99.90;;;;;;5088686;28;20196;-78
2022/05/21 11:15:39;;;;;;;6.90;3.50;;;14.90;99.90;;;;;;5097044;28;20639;-78
2022/05/21 11:18:20;;;;;;;8.20;3.53;;;15.00;99.90;;;;;;5087523;28;20691;-81
2022/05/21 11:21:05;;;;;;;5.72;3.10;;;15.00;99.90;;;;;;5091458;28;20192;-78
2022/05/21 11:23:44;;;;;;;7.38;3.30;;;15.00;99.90;;;;;;5091806;28;20188;-79
2022/05/21 11:26:23;;;;;;;66.07;43.92;;;15.00;99.90;;;;;;5086466;28;20262;-80
2022/05/21 11:28:58;;;;;;;88.03;51.08;;;15.00;99.90;;;;;;5089842;28;20440;-77
2022/05/21 11:37:23;;;;;;;11.50;6.90;;;15.00;99.90;;;;;;5091215;28;20277;-79
2022/05/21 11:39:55;;;;;;;15.02;7.93;;;15.00;99.90;;;;;;5088022;28;20196;-78
2022/05/21 11:42:28;;;;;;;13.57;6.60;;;15.00;99.90;;;;;;5090441;28;20206;-82
2022/05/21 11:45:13;;;;;;;9.32;5.85;;;15.00;99.90;;;;;;5105032;28;20224;-78
2022/05/21 12:01:56;;;;;;;12.02;6.53;;;14.90;99.90;;;;;;4995257;28;20222;-78
2022/05/21 12:04:51;;;;;;;9.30;5.30;;;14.90;99.90;;;;;;4992961;28;20705;-78
2022/05/21 12:07:56;;;;;;;11.05;5.15;;;14.90;99.90;;;;;;5059418;28;20271;-78
2022/05/21 12:10:30;;;;;;;9.52;5.03;;;14.90;99.90;;;;;;5058829;28;20623;-82
2022/05/21 12:13:12;;;;;;;7.15;4.97;;;14.90;99.90;;;;;;5058259;28;20201;-80
2022/05/21 12:15:44;;;;;;;7.57;4.30;;;15.00;99.90;;;;;;5061452;28;20668;-85
2022/05/21 12:18:44;;;;;;;8.98;4.13;;;15.00;99.90;;;;;;5064696;28;20244;-83
2022/05/21 12:21:52;;;;;;;5.75;3.63;;;15.00;99.90;;;;;;5065754;28;20200;-81
2022/05/21 12:24:43;;;;;;;229.13;106.00;;;15.00;99.90;;;;;;5061256;28;20197;-81
2022/05/21 12:27:24;;;;;;;60.15;37.70;;;15.00;99.90;;;;;;5062428;28;20237;-83
2022/05/21 12:29:59;;;;;;;25.30;17.77;;;15.00;99.90;;;;;;5063116;28;20200;-80
2022/05/21 12:32:33;;;;;;;11.32;8.85;;;15.00;99.90;;;;;;5059733;28;20197;-81
2022/05/21 12:35:27;;;;;;;9.60;4.60;;;15.00;99.90;;;;;;5058774;28;20193;-78
2022/05/21 12:38:05;;;;;;;9.52;4.85;;;15.00;99.90;;;;;;5051331;28;20541;-83
2022/05/21 12:40:52;;;;;;;5.40;3.58;;;15.00;99.90;;;;;;5058451;28;20205;-79
2022/05/21 12:43:24;;;;;;;4.28;2.95;;;15.00;99.90;;;;;;5073994;28;20185;-79
2022/05/21 12:45:56;;;;;;;4.10;2.78;;;15.00;99.90;;;;;;5077003;28;20311;-82
2022/05/21 12:48:34;;;;;;;4.03;2.80;;;15.00;99.90;;;;;;5098189;28;20253;-82
2022/05/21 12:51:09;;;;;;;5.25;3.25;;;15.00;99.90;;;;;;5096108;28;20191;-78
2022/05/21 12:53:45;;;;;;;4.50;2.78;;;15.00;99.90;;;;;;5095606;28;20273;-81
2022/05/21 12:56:27;;;;;;;4.32;2.83;;;15.00;99.90;;;;;;5100388;28;20244;-79
2022/05/21 12:59:12;;;;;;;6.28;2.70;;;14.90;99.90;;;;;;5105906;28;20196;-78
2022/05/21 13:01:52;;;;;;;4.45;2.60;;;14.90;99.90;;;;;;5097679;28;20713;-79
2022/05/21 13:04:28;;;;;;;4.82;2.78;;;14.80;99.90;;;;;;5102886;28;20582;-78
2022/05/21 13:07:05;;;;;;;4.82;2.75;;;14.80;99.90;;;;;;5096781;28;20204;-78
2022/05/21 13:09:40;;;;;;;4.32;2.80;;;14.80;99.90;;;;;;5102461;28;20231;-78
2022/05/21 13:12:18;;;;;;;4.63;2.97;;;14.80;99.90;;;;;;5095274;28;20180;-80
2022/05/21 13:14:51;;;;;;;4.43;2.95;;;14.80;99.90;;;;;;5094716;28;20183;-77
2022/05/21 13:17:30;;;;;;;5.93;3.40;;;14.70;99.90;;;;;;5093888;28;20204;-76
2022/05/21 13:20:15;;;;;;;7.13;3.22;;;14.70;99.90;;;;;;5095756;28;20674;-78
2022/05/21 13:23:03;;;;;;;4.30;3.42;;;14.70;99.90;;;;;;5099098;28;20192;-78
2022/05/21 13:25:33;;;;;;;5.35;3.22;;;14.60;99.90;;;;;;5105534;28;20183;-78
2022/05/21 13:28:14;;;;;;;7.20;3.60;;;14.60;99.90;;;;;;5105824;28;22099;-82
2022/05/21 13:30:47;;;;;;;6.55;3.60;;;14.60;99.90;;;;;;5102586;28;20625;-77
2022/05/21 13:33:35;;;;;;;6.63;3.70;;;14.50;99.90;;;;;;5095242;28;20207;-78
2022/05/21 13:36:10;;;;;;;3.63;3.22;;;14.60;99.90;;;;;;5094860;28;20732;-78
2022/05/21 13:38:45;;;;;;;6.57;3.60;;;14.50;99.90;;;;;;5103181;28;20248;-77
2022/05/21 13:41:27;;;;;;;6.18;3.42;;;14.50;99.90;;;;;;5098383;28;20650;-77
2022/05/21 13:43:59;;;;;;;5.07;3.40;;;14.50;99.90;;;;;;5108880;28;20191;-77
2022/05/21 13:46:33;;;;;;;4.82;3.20;;;14.50;99.90;;;;;;5100989;28;20235;-77
2022/05/21 13:49:08;;;;;;;7.13;3.42;;;14.60;99.90;;;;;;5093362;28;20192;-77
2022/05/21 13:51:40;;;;;;;5.10;3.08;;;14.60;99.90;;;;;;5099092;28;20196;-81
2022/05/21 13:54:14;;;;;;;4.72;3.33;;;14.60;99.90;;;;;;5095472;28;20679;-77
2022/05/21 13:56:46;;;;;;;6.40;3.33;;;14.60;99.90;;;;;;5099978;28;20199;-77
2022/05/21 13:59:23;;;;;;;6.93;3.17;;;14.60;99.90;;;;;;5095982;28;20188;-77
2022/05/21 14:01:56;;;;;;;4.63;3.17;;;14.50;99.90;;;;;;5096642;28;20196;-77
2022/05/21 14:04:35;;;;;;;5.88;3.30;;;14.50;99.90;;;;;;5106152;28;20227;-77
2022/05/21 14:07:17;;;;;;;5.82;3.30;;;14.60;99.90;;;;;;5101978;28;20238;-77
2022/05/21 14:09:51;;;;;;;6.13;3.42;;;14.60;99.90;;;;;;5095606;28;20196;-77
2022/05/21 14:12:38;;;;;;;4.97;3.50;;;14.50;99.90;;;;;;5103142;28;20602;-77
2022/05/21 14:15:13;;;;;;;5.45;3.40;;;14.60;99.90;;;;;;5101991;28;20232;-78
2022/05/21 14:17:45;;;;;;;7.97;3.80;;;14.50;99.90;;;;;;5104681;28;20188;-77
2022/05/21 14:20:35;;;;;;;12.25;4.35;;;14.50;99.90;;;;;;5097966;28;20192;-78
2022/05/21 14:23:30;;;;;;;7.95;3.92;;;14.60;99.90;;;;;;5095556;28;20203;-77
2022/05/21 14:26:31;;;;;;;5.38;4.13;;;14.50;99.90;;;;;;5097887;28;20192;-77
2022/05/21 14:29:03;;;;;;;4.57;3.78;;;14.50;99.90;;;;;;5093528;28;20662;-78
2022/05/21 14:31:41;;;;;;;5.00;4.00;;;14.50;99.90;;;;;;5096798;28;20646;-77
2022/05/21 14:34:24;;;;;;;6.18;3.95;;;14.50;99.90;;;;;;5095393;28;20666;-78
2022/05/21 14:36:55;;;;;;;6.10;4.07;;;14.50;99.90;;;;;;5093601;28;20275;-79
2022/05/21 14:39:26;;;;;;;6.40;4.10;;;14.50;99.90;;;;;;5096594;28;20199;-79
2022/05/21 14:42:02;;;;;;;7.28;4.10;;;14.50;99.90;;;;;;5093539;28;20200;-78
2022/05/21 14:44:33;;;;;;;6.35;4.00;;;14.50;99.90;;;;;;5100496;28;20187;-78
2022/05/21 14:52:49;;;;;;;5.88;3.88;;;14.50;99.90;;;;;;5100636;28;20195;-77
2022/05/21 14:52:52;;;;;;;5.03;3.70;;;14.40;99.90;;;;;;5094272;28;20219;-78
2022/05/21 14:55:24;;;;;;;4.82;3.33;;;14.50;99.90;;;;;;5099511;28;20270;-81
2022/05/21 14:57:56;;;;;;;5.13;3.20;;;14.40;99.90;;;;;;5097152;28;20191;-78
2022/05/21 15:00:28;;;;;;;5.10;3.08;;;14.50;99.90;;;;;;5095428;28;20204;-78
2022/05/21 15:02:59;;;;;;;4.78;3.30;;;14.40;99.90;;;;;;5094309;28;20748;-77
2022/05/21 15:05:32;;;;;;;4.50;2.88;;;14.40;99.90;;;;;;5099774;28;20199;-77
2022/05/21 15:08:04;;;;;;;5.32;3.08;;;14.40;99.90;;;;;;5098809;28;20208;-79
2022/05/21 15:10:35;;;;;;;6.43;3.13;;;14.40;99.90;;;;;;5104473;28;20650;-77
2022/05/21 15:13:08;;;;;;;3.97;3.05;;;14.40;99.90;;;;;;5100419;28;20199;-77
2022/05/21 15:15:39;;;;;;;4.80;2.95;;;14.40;99.90;;;;;;5105209;28;20208;-77
2022/05/21 15:18:10;;;;;;;5.47;2.90;;;14.20;99.90;;;;;;5098338;28;20200;-77
2022/05/21 15:20:41;;;;;;;4.07;2.80;;;14.30;99.90;;;;;;5092996;28;20603;-78
2022/05/21 15:23:13;;;;;;;3.45;2.63;;;14.30;99.90;;;;;;5097651;28;20640;-77
2022/05/21 15:25:44;;;;;;;3.85;2.88;;;14.30;99.90;;;;;;5102866;28;20266;-77
2022/05/21 15:28:17;;;;;;;3.13;2.83;;;14.20;99.90;;;;;;5105352;28;20216;-76
2022/05/21 15:30:49;;;;;;;4.80;2.80;;;14.20;99.90;;;;;;5104709;28;20191;-78
2022/05/21 15:33:20;;;;;;;6.53;3.00;;;14.20;99.90;;;;;;5099596;28;20280;-77
2022/05/21 15:35:51;;;;;;;4.88;2.58;;;14.20;99.90;;;;;;5102999;28;20230;-77
2022/05/21 15:38:22;;;;;;;5.50;3.20;;;14.20;99.90;;;;;;5101742;28;20206;-77
2022/05/21 15:40:53;;;;;;;5.20;2.97;;;14.20;99.90;;;;;;5097948;28;20567;-76
2022/05/21 15:43:26;;;;;;;4.47;2.90;;;14.20;99.90;;;;;;5101993;28;20191;-76
2022/05/21 15:45:57;;;;;;;3.30;2.90;;;14.20;99.90;;;;;;5097118;28;20224;-77
2022/05/21 15:48:27;;;;;;;4.32;3.03;;;14.20;99.90;;;;;;5099420;28;20227;-76
2022/05/21 15:50:58;;;;;;;4.47;3.30;;;14.10;99.90;;;;;;5105801;28;20557;-77
2022/05/21 15:53:30;;;;;;;5.50;3.20;;;14.10;99.90;;;;;;5107606;28;20215;-77
2022/05/21 15:56:02;;;;;;;3.55;3.10;;;14.00;99.90;;;;;;5099624;28;20204;-77
2022/05/21 15:58:35;;;;;;;4.22;3.13;;;14.00;99.90;;;;;;5103165;28;20577;-77
2022/05/21 16:01:06;;;;;;;5.40;3.20;;;14.00;99.90;;;;;;5102067;28;20222;-78
2022/05/21 16:03:39;;;;;;;5.10;3.20;;;14.00;99.90;;;;;;5101648;28;20204;-77
2022/05/21 16:06:10;;;;;;;4.10;2.92;;;14.00;99.90;;;;;;5098108;28;20204;-78
2022/05/21 16:08:41;;;;;;;5.85;3.03;;;14.00;99.90;;;;;;5103099;28;20629;-77
2022/05/21 16:11:15;;;;;;;4.78;3.10;;;14.00;99.90;;;;;;5103367;28;20309;-78
2022/05/21 16:13:48;;;;;;;3.83;2.83;;;14.00;99.90;;;;;;5101581;28;20685;-76
2022/05/21 16:16:19;;;;;;;4.88;2.92;;;14.00;99.90;;;;;;5109814;28;20203;-77
2022/05/21 16:18:51;;;;;;;4.40;2.80;;;14.00;99.90;;;;;;5099589;28;20234;-78
2022/05/21 16:21:24;;;;;;;3.25;2.83;;;14.00;99.90;;;;;;5101039;28;20252;-76
2022/05/21 16:23:56;;;;;;;3.38;2.78;;;14.00;99.90;;;;;;5103752;28;20188;-77
2022/05/21 16:29:15;;;;;;;3.92;2.88;;;13.90;99.90;;;;;;5106734;28;20207;-77
2022/05/21 16:31:46;;;;;;;5.70;2.92;;;13.90;99.90;;;;;;5097689;28;20659;-77
2022/05/21 16:34:17;;;;;;;4.70;3.35;;;13.90;99.90;;;;;;5098411;28;20214;-77
2022/05/21 16:36:47;;;;;;;6.65;3.63;;;13.80;99.90;;;;;;5102662;28;20252;-77
2022/05/21 16:39:18;;;;;;;4.25;3.58;;;13.80;99.90;;;;;;5104456;28;20191;-77
2022/05/21 16:41:50;;;;;;;5.07;3.30;;;13.80;99.90;;;;;;5097165;28;20200;-76
2022/05/21 16:44:23;;;;;;;5.22;4.10;;;13.80;99.90;;;;;;5100236;28;20206;-77
2022/05/21 16:46:54;;;;;;;5.32;3.78;;;13.90;99.90;;;;;;5104897;28;20227;-79
2022/05/21 16:49:25;;;;;;;5.20;3.75;;;13.90;99.90;;;;;;5103025;28;20524;-79
2022/05/21 16:51:56;;;;;;;5.40;3.72;;;14.00;99.90;;;;;;5101452;28;20234;-77
2022/05/21 16:54:29;;;;;;;5.45;4.30;;;14.00;99.90;;;;;;5099868;28;20200;-79
2022/05/21 16:57:00;;;;;;;5.68;3.83;;;14.00;99.90;;;;;;5100330;28;20214;-76
2022/05/21 16:59:32;;;;;;;4.80;3.53;;;14.00;99.90;;;;;;5099722;28;20204;-81
2022/05/21 17:02:03;;;;;;;5.15;3.78;;;14.00;99.90;;;;;;5103854;28;20196;-78
2022/05/21 17:04:34;;;;;;;5.68;3.78;;;14.10;99.90;;;;;;5100564;28;20603;-77
2022/05/21 17:07:05;;;;;;;7.03;3.63;;;14.10;99.90;;;;;;5102591;28;20216;-77
2022/05/21 17:09:36;;;;;;;5.28;3.58;;;14.10;99.90;;;;;;5095426;28;20600;-77
2022/05/21 17:12:08;;;;;;;6.00;3.97;;;14.10;99.90;;;;;;5102484;28;20196;-77
2022/05/21 17:14:41;;;;;;;5.63;3.60;;;14.10;99.90;;;;;;5103669;28;20227;-79
2022/05/21 17:17:12;;;;;;;5.35;3.90;;;14.10;99.90;;;;;;5102980;28;20559;-77
2022/05/21 17:19:43;;;;;;;6.40;3.97;;;14.00;99.90;;;;;;5102278;28;20194;-77
2022/05/21 17:22:17;;;;;;;5.65;3.38;;;14.10;99.90;;;;;;5105080;28;20204;-77
2022/05/21 17:24:48;;;;;;;5.75;3.70;;;14.10;99.90;;;;;;5100761;28;20673;-76
2022/05/21 17:32:57;;;;;;;6.63;3.75;;;14.00;99.90;;;;;;5100491;28;20674;-78
2022/05/21 17:35:31;;;;;;;5.43;3.35;;;14.00;99.90;;;;;;5101222;28;20188;-76
2022/05/21 17:38:02;;;;;;;4.72;3.70;;;14.00;99.90;;;;;;5102411;28;20585;-77
2022/05/21 17:40:33;;;;;;;4.72;3.72;;;14.00;99.90;;;;;;5103381;28;20196;-78
2022/05/21 17:43:04;;;;;;;4.70;3.78;;;14.00;99.90;;;;;;5102056;28;20636;-77
2022/05/21 17:45:37;;;;;;;5.13;3.50;;;14.10;99.90;;;;;;5097227;28;20232;-76
2022/05/21 17:48:08;;;;;;;4.50;3.30;;;14.00;99.90;;;;;;5100580;28;20247;-79
2022/05/21 17:50:39;;;;;;;6.28;3.53;;;14.00;99.90;;;;;;5100615;28;20200;-86
2022/05/21 17:53:10;;;;;;;3.90;3.30;;;14.00;99.90;;;;;;5100420;28;20227;-78
2022/05/21 17:55:41;;;;;;;3.60;2.97;;;14.00;99.90;;;;;;5096412;28;20207;-78